Time;durP1;ratioP1;P1;durP2;ratioP2;P2;SDS_P1;SDS_P2;PMS_P1;PMS_P2;Temp;Humidity;BMP_temperature;BMP_pressure;BME280_temperature;BME280_humidity;BME280_pressure;Samples;Min_cycle;Max_cycle;Signal;HPM_P1;HPM_P2
2022/04/07 00:00:05;;;;;;;2.33;1.52;;;;;;;19.01;47.38;99511.25;4969994;28;20094;-50
2022/04/07 00:02:30;;;;;;;3.22;1.45;;;;;;;19.00;47.32;99504.34;4970295;28;20026;-48
2022/04/07 00:04:56;;;;;;;2.20;1.63;;;;;;;19.01;47.21;99505.97;4974335;28;20043;-47
2022/04/07 00:07:21;;;;;;;2.83;1.63;;;;;;;19.01;47.32;99499.88;4971393;28;20031;-48
2022/04/07 00:09:47;;;;;;;4.15;1.80;;;;;;;19.02;47.33;99502.31;4970545;28;20470;-49
2022/04/07 00:12:12;;;;;;;2.65;1.67;;;;;;;19.02;47.17;99498.84;4972224;28;20051;-47
2022/04/07 00:14:37;;;;;;;5.13;1.60;;;;;;;19.01;47.13;99494.59;4971857;28;20808;-48
2022/04/07 00:17:04;;;;;;;1.95;1.20;;;;;;;19.01;47.10;99490.13;4969334;28;20034;-48
2022/04/07 00:19:29;;;;;;;3.28;1.80;;;;;;;19.01;47.04;99491.97;4972532;28;20031;-47
2022/04/07 00:21:56;;;;;;;4.32;2.03;;;;;;;19.00;47.03;99485.06;4970692;28;20030;-47
2022/04/07 00:24:22;;;;;;;3.78;1.25;;;;;;;19.00;47.09;99477.16;4970913;28;20085;-48
2022/04/07 00:26:48;;;;;;;3.10;1.48;;;;;;;19.01;47.07;99478.78;4970870;28;20034;-48
2022/04/07 00:29:13;;;;;;;2.65;1.33;;;;;;;18.99;46.96;99478.19;4970690;28;20097;-47
2022/04/07 00:31:39;;;;;;;2.60;1.10;;;;;;;18.98;47.07;99469.47;4973837;28;21024;-47
2022/04/07 00:34:06;;;;;;;4.35;1.40;;;;;;;18.98;46.93;99466.00;4969823;28;20034;-48
2022/04/07 00:36:32;;;;;;;2.17;1.13;;;;;;;18.97;47.21;99467.03;4987261;28;20121;-49
2022/04/07 00:38:58;;;;;;;2.85;1.38;;;;;;;18.96;47.07;99460.97;4970359;28;20037;-50
2022/04/07 00:41:24;;;;;;;2.70;1.20;;;;;;;18.97;47.08;99459.13;4969297;28;20027;-48
2022/04/07 00:43:51;;;;;;;4.00;1.10;;;;;;;18.95;47.03;99456.72;4970799;28;20069;-47
2022/04/07 00:46:17;;;;;;;2.10;1.23;;;;;;;18.95;46.96;99456.72;4970695;28;20031;-48
2022/04/07 00:48:42;;;;;;;2.38;1.48;;;;;;;18.94;47.04;99454.28;4972306;28;20117;-49
2022/04/07 00:51:08;;;;;;;2.38;1.10;;;;;;;18.95;47.03;99458.53;4971476;28;20105;-47
2022/04/07 00:53:34;;;;;;;3.58;1.05;;;;;;;18.94;46.97;99449.00;4984433;28;20046;-48
2022/04/07 00:56:01;;;;;;;2.13;1.40;;;;;;;18.93;46.98;99445.56;4969402;28;20514;-48
2022/04/07 00:58:29;;;;;;;2.47;1.23;;;;;;;18.93;46.98;99439.47;4969831;28;20101;-50
2022/04/07 01:00:56;;;;;;;3.80;1.40;;;;;;;18.92;47.25;99437.88;4957919;28;20069;-48
2022/04/07 01:03:21;;;;;;;3.05;1.13;;;;;;;18.91;47.05;99434.44;4970016;28;20030;-49
2022/04/07 01:05:47;;;;;;;2.60;1.20;;;;;;;18.90;47.20;99430.97;4971387;28;20030;-50
2022/04/07 01:08:12;;;;;;;2.03;1.17;;;;;;;18.90;47.10;99433.63;4970885;28;20626;-49
2022/04/07 01:10:39;;;;;;;3.75;1.58;;;;;;;18.90;46.96;99432.84;4969500;28;20041;-49
2022/04/07 01:13:05;;;;;;;3.08;1.50;;;;;;;18.89;46.95;99423.31;4969589;28;20058;-49
2022/04/07 01:15:30;;;;;;;2.08;1.33;;;;;;;18.89;46.96;99432.03;4986645;28;20094;-48
2022/04/07 01:17:57;;;;;;;3.00;1.38;;;;;;;18.89;46.82;99426.75;4970205;28;20170;-51
2022/04/07 01:20:23;;;;;;;2.67;1.20;;;;;;;18.88;46.91;99425.16;4972460;28;20062;-50
2022/04/07 01:22:49;;;;;;;2.33;1.27;;;;;;;18.88;46.99;99425.16;4970235;28;20065;-50
2022/04/07 01:25:14;;;;;;;1.63;1.20;;;;;;;18.89;46.77;99432.03;4969564;28;20182;-48
2022/04/07 01:27:40;;;;;;;2.30;1.00;;;;;;;18.88;46.96;99430.44;4969680;28;20039;-49
2022/04/07 01:30:10;;;;;;;2.17;1.00;;;;;;;18.89;47.14;99425.97;4969680;28;20027;-48
2022/04/07 01:32:43;;;;;;;1.73;1.15;;;;;;;18.87;46.97;99422.72;4969616;28;20093;-51
2022/04/07 01:35:09;;;;;;;2.00;1.25;;;;;;;18.88;46.90;99414.59;4969428;28;20039;-47
2022/04/07 01:37:37;;;;;;;2.35;1.60;;;;;;;18.88;46.74;99416.44;4970759;28;20042;-48
2022/04/07 01:40:04;;;;;;;3.33;1.30;;;;;;;18.86;47.02;99416.66;4968716;28;20481;-50
2022/04/07 01:42:33;;;;;;;3.17;1.10;;;;;;;18.86;46.99;99415.84;4969672;28;20053;-47
2022/04/07 01:45:01;;;;;;;3.10;1.40;;;;;;;18.86;46.93;99415.84;4968820;28;20046;-49
2022/04/07 01:47:28;;;;;;;3.42;1.30;;;;;;;18.85;47.00;99414.25;4986309;28;20046;-49
2022/04/07 01:50:08;;;;;;;1.75;1.02;;;;;;;18.84;46.95;99404.72;4969336;28;20030;-47
2022/04/07 01:52:38;;;;;;;2.63;1.15;;;;;;;18.85;46.94;99407.13;4973071;28;20046;-47
2022/04/07 01:55:05;;;;;;;3.80;1.50;;;;;;;18.86;46.90;99400.81;4969612;28;20030;-48
2022/04/07 01:57:31;;;;;;;2.40;1.23;;;;;;;18.86;46.75;99395.53;4968230;28;20161;-48
2022/04/07 01:59:59;;;;;;;3.15;1.10;;;;;;;18.85;46.83;99393.94;4968610;28;20507;-48
2022/04/07 02:02:24;;;;;;;1.63;0.80;;;;;;;18.87;46.82;99391.88;4967166;28;20030;-49
2022/04/07 02:05:03;;;;;;;3.05;1.00;;;;;;;18.85;46.78;99393.13;4968934;28;20049;-48
2022/04/07 02:07:32;;;;;;;2.50;1.40;;;;;;;18.86;46.90;99386.81;4986166;28;20733;-48
2022/04/07 02:09:58;;;;;;;4.10;1.17;;;;;;;18.86;46.70;99379.72;4983333;28;20027;-48
2022/04/07 02:12:27;;;;;;;1.10;0.98;;;;;;;18.87;46.85;99380.50;5195094;22;20112;-47
2022/04/07 02:14:53;;;;;;;2.10;1.08;;;;;;;18.87;47.01;99381.31;5022084;28;20030;-48
2022/04/07 02:17:20;;;;;;;2.78;1.15;;;;;;;18.87;46.69;99389.22;5005645;28;20042;-48
2022/04/07 02:19:54;;;;;;;1.85;1.10;;;;;;;18.85;46.74;99391.28;5007615;28;20034;-47
2022/04/07 02:22:20;;;;;;;2.38;1.13;;;;;;;18.87;46.66;99394.50;5003224;28;20030;-47
2022/04/07 02:24:47;;;;;;;2.40;0.88;;;;;;;18.86;46.75;99378.91;5007766;28;20532;-49
2022/04/07 02:27:13;;;;;;;1.80;0.90;;;;;;;18.86;46.68;99378.91;5008227;28;20193;-48
2022/04/07 02:29:39;;;;;;;1.98;0.90;;;;;;;18.86;46.75;99379.72;5007560;28;20060;-52
2022/04/07 02:32:05;;;;;;;1.52;0.90;;;;;;;18.87;46.83;99391.06;5005067;28;20061;-48
2022/04/07 02:34:31;;;;;;;2.55;0.70;;;;;;;18.86;46.90;99379.72;5007963;28;20034;-48
2022/04/07 02:36:56;;;;;;;1.67;0.70;;;;;;;18.85;46.66;99383.38;5009925;28;20045;-47
2022/04/07 02:39:22;;;;;;;1.65;0.75;;;;;;;18.84;46.94;99378.31;5007629;28;20026;-48
2022/04/07 02:41:48;;;;;;;1.38;0.70;;;;;;;18.83;46.77;99366.97;5006179;28;20045;-46
2022/04/07 02:44:13;;;;;;;1.73;0.80;;;;;;;18.84;46.77;99370.41;5007494;28;20026;-49
2022/04/07 02:46:39;;;;;;;1.20;0.77;;;;;;;18.84;46.72;99365.13;5006608;28;20477;-47
2022/04/07 02:49:05;;;;;;;1.50;0.95;;;;;;;18.83;46.80;99369.59;5009131;28;20269;-49
2022/04/07 02:51:31;;;;;;;2.58;1.02;;;;;;;18.82;46.76;99368.00;5005116;28;20072;-47
2022/04/07 02:54:00;;;;;;;1.48;0.82;;;;;;;18.83;46.76;99371.44;5007219;28;20034;-48
2022/04/07 02:56:26;;;;;;;1.05;0.70;;;;;;;18.82;46.81;99360.06;5006581;28;20042;-49
2022/04/07 02:58:51;;;;;;;1.60;0.90;;;;;;;18.81;46.92;99362.94;5007366;28;20025;-47
2022/04/07 03:01:17;;;;;;;1.58;0.80;;;;;;;18.80;46.72;99354.22;5005727;28;20115;-50
2022/04/07 03:03:43;;;;;;;2.97;0.90;;;;;;;18.79;46.79;99357.88;5005641;28;20742;-48
2022/04/07 03:06:09;;;;;;;2.17;0.80;;;;;;;18.79;46.64;99362.34;5007295;28;20113;-48
2022/04/07 03:08:34;;;;;;;1.45;1.00;;;;;;;18.78;46.83;99351.00;5009409;28;20139;-49
2022/04/07 03:11:00;;;;;;;1.83;0.70;;;;;;;18.78;46.67;99347.53;5005683;28;20386;-54
2022/04/07 03:13:26;;;;;;;2.72;1.02;;;;;;;18.77;46.67;99352.03;5003133;28;20053;-50
2022/04/07 03:15:51;;;;;;;1.92;0.90;;;;;;;18.77;46.68;99353.84;4995214;28;20080;-51
2022/04/07 03:18:17;;;;;;;1.52;1.23;;;;;;;18.77;46.58;99348.56;4999655;28;20082;-52
2022/04/07 03:20:43;;;;;;;2.55;1.00;;;;;;;18.76;46.50;99354.88;5021114;28;20129;-48
2022/04/07 03:23:08;;;;;;;2.13;1.30;;;;;;;18.76;46.55;99353.06;5007739;28;20121;-49
2022/04/07 03:25:34;;;;;;;1.60;0.57;;;;;;;18.76;46.50;99347.78;5006367;28;20033;-49
2022/04/07 03:27:59;;;;;;;1.35;0.90;;;;;;;18.75;46.46;99340.09;5005091;28;20113;-48
2022/04/07 03:30:25;;;;;;;1.98;1.00;;;;;;;18.76;46.67;99339.84;5003739;28;20029;-48
2022/04/07 03:32:50;;;;;;;1.40;0.88;;;;;;;18.75;46.58;99346.16;5003985;28;20038;-49
2022/04/07 03:35:16;;;;;;;1.60;0.60;;;;;;;18.76;46.65;99353.06;5007203;28;20571;-46
2022/04/07 03:37:42;;;;;;;2.60;1.05;;;;;;;18.75;46.51;99348.81;5008301;28;20033;-48
2022/04/07 03:40:08;;;;;;;2.40;1.00;;;;;;;18.74;46.47;99347.19;4996929;28;20045;-49
2022/04/07 03:42:33;;;;;;;1.50;0.82;;;;;;;18.75;46.66;99348.00;5004509;28;20047;-50
2022/04/07 03:44:59;;;;;;;2.40;0.82;;;;;;;18.74;46.52;99344.56;5001571;28;20026;-49
2022/04/07 03:47:24;;;;;;;2.63;0.80;;;;;;;18.73;46.64;99347.41;4992469;28;20473;-49
2022/04/07 03:49:51;;;;;;;2.97;0.80;;;;;;;18.73;46.70;99352.69;5005931;28;20033;-48
2022/04/07 03:52:16;;;;;;;2.65;0.90;;;;;;;18.72;46.70;99351.09;5006773;28;20045;-47
2022/04/07 03:54:42;;;;;;;2.05;0.93;;;;;;;18.72;46.69;99354.53;5007445;28;20033;-52
2022/04/07 03:57:07;;;;;;;2.67;0.75;;;;;;;18.71;46.64;99352.09;5006205;28;20029;-50
2022/04/07 03:59:38;;;;;;;1.75;0.82;;;;;;;18.71;46.70;99360.03;5004493;28;20026;-49
2022/04/07 04:02:06;;;;;;;1.50;0.98;;;;;;;18.70;46.66;99359.22;5005379;28;20516;-47
2022/04/07 04:04:32;;;;;;;1.98;0.80;;;;;;;18.71;46.74;99352.09;5006162;28;20113;-47
2022/04/07 04:06:58;;;;;;;2.85;0.88;;;;;;;18.73;46.70;99356.13;5006371;28;20448;-50
2022/04/07 04:09:23;;;;;;;2.15;1.17;;;;;;;18.72;46.72;99362.44;5005440;28;20022;-46
2022/04/07 04:11:49;;;;;;;1.65;0.98;;;;;;;18.71;46.73;99355.56;5004428;28;20038;-49
2022/04/07 04:14:14;;;;;;;3.53;0.95;;;;;;;18.72;46.79;99362.44;5005234;28;20030;-47
2022/04/07 04:16:41;;;;;;;6.22;1.05;;;;;;;18.73;46.96;99363.25;5005985;28;20055;-48
2022/04/07 04:19:07;;;;;;;2.00;0.90;;;;;;;18.73;46.89;99366.69;5008046;28;20041;-48
2022/04/07 04:21:33;;;;;;;3.17;0.80;;;;;;;18.74;46.93;99365.66;5004666;28;20042;-48
2022/04/07 04:23:58;;;;;;;3.70;0.60;;;;;;;18.74;46.91;99365.66;5004683;28;20030;-45
2022/04/07 04:26:24;;;;;;;1.55;0.70;;;;;;;18.75;46.88;99369.91;5003408;28;20443;-47
2022/04/07 04:28:49;;;;;;;3.90;1.15;;;;;;;18.75;46.84;99364.63;4992128;28;20118;-47
2022/04/07 04:31:15;;;;;;;2.33;0.77;;;;;;;18.75;46.84;99366.47;5010318;28;20038;-48
2022/04/07 04:33:40;;;;;;;1.95;0.70;;;;;;;18.74;46.77;99360.38;5011784;28;20376;-47
2022/04/07 04:36:06;;;;;;;1.45;0.60;;;;;;;18.74;46.74;99360.38;5009193;28;20053;-49
2022/04/07 04:38:31;;;;;;;2.38;0.80;;;;;;;18.75;46.83;99366.47;5003092;28;20523;-46
2022/04/07 04:40:57;;;;;;;2.75;0.73;;;;;;;18.73;46.79;99369.31;5008436;28;20051;-49
2022/04/07 04:43:22;;;;;;;2.05;0.70;;;;;;;18.73;46.78;99369.31;5008965;28;20127;-49
2022/04/07 04:45:48;;;;;;;2.55;0.70;;;;;;;18.72;46.77;99367.72;5009729;28;20029;-48
2022/04/07 04:48:13;;;;;;;1.05;0.68;;;;;;;18.72;46.88;99366.91;5012843;28;20029;-49
2022/04/07 04:50:38;;;;;;;1.52;0.50;;;;;;;18.70;46.89;99364.50;5007833;28;20030;-49
2022/04/07 04:53:04;;;;;;;1.02;0.57;;;;;;;18.69;46.81;99364.72;5007311;28;20026;-47
2022/04/07 04:55:30;;;;;;;2.30;0.75;;;;;;;18.69;46.71;99362.88;5010659;28;20046;-47
2022/04/07 04:57:55;;;;;;;1.42;0.52;;;;;;;18.69;46.73;99362.88;5007095;28;20062;-46
2022/04/07 05:00:21;;;;;;;1.85;0.70;;;;;;;18.69;46.84;99367.34;5007331;28;20136;-48
2022/04/07 05:02:46;;;;;;;1.40;0.60;;;;;;;18.68;46.79;99363.91;5008613;28;20516;-49
2022/04/07 05:05:12;;;;;;;2.00;0.50;;;;;;;18.66;46.72;99363.34;5008394;28;20109;-46
2022/04/07 05:07:38;;;;;;;0.85;0.40;;;;;;;18.67;46.73;99366.78;5008666;28;20509;-47
2022/04/07 05:10:05;;;;;;;2.15;0.70;;;;;;;18.66;46.75;99367.81;5007807;28;20034;-47
2022/04/07 05:12:30;;;;;;;1.90;0.73;;;;;;;18.64;46.88;99362.75;5006953;28;20563;-49
2022/04/07 05:14:56;;;;;;;1.30;0.70;;;;;;;18.65;46.78;99371.47;5009009;28;20029;-47
2022/04/07 05:17:22;;;;;;;3.03;0.50;;;;;;;18.64;46.79;99370.66;5010776;28;20041;-47
2022/04/07 05:19:48;;;;;;;1.70;0.60;;;;;;;18.64;46.79;99370.66;5008706;28;20038;-48
2022/04/07 05:22:13;;;;;;;1.58;0.70;;;;;;;18.64;46.62;99375.94;5003632;28;20112;-50
2022/04/07 05:24:39;;;;;;;2.08;0.60;;;;;;;18.63;46.69;99373.53;5009881;28;20525;-48
2022/04/07 05:27:04;;;;;;;1.30;0.63;;;;;;;18.63;46.71;99376.16;5006787;28;20759;-50
2022/04/07 05:29:30;;;;;;;1.95;0.70;;;;;;;18.62;46.81;99371.91;5007071;28;20038;-47
2022/04/07 05:31:55;;;;;;;1.40;0.80;;;;;;;18.62;46.79;99378.00;5007303;28;20093;-47
2022/04/07 05:34:21;;;;;;;2.15;0.77;;;;;;;18.62;46.72;99383.25;5009881;28;20121;-48
2022/04/07 05:36:46;;;;;;;3.50;0.50;;;;;;;18.62;46.73;99388.53;5010030;28;20478;-47
2022/04/07 05:39:13;;;;;;;1.10;0.45;;;;;;;18.63;46.70;99392.00;5006153;28;20041;-51
2022/04/07 05:41:39;;;;;;;1.30;0.80;;;;;;;18.64;46.68;99393.59;5007581;28;20497;-50
2022/04/07 05:44:05;;;;;;;1.20;0.55;;;;;;;18.63;46.67;99392.78;5007260;28;20482;-46
2022/04/07 05:46:31;;;;;;;1.20;0.65;;;;;;;18.62;46.59;99393.81;5007492;28;20061;-48
2022/04/07 05:48:56;;;;;;;1.20;0.70;;;;;;;18.63;46.65;99405.19;5008794;28;20084;-50
2022/04/07 05:51:22;;;;;;;3.45;0.88;;;;;;;18.62;46.62;99408.84;5007216;28;20033;-49
2022/04/07 05:53:47;;;;;;;1.50;0.73;;;;;;;18.62;46.65;99414.13;5009030;28;20026;-49
2022/04/07 05:56:12;;;;;;;1.40;0.65;;;;;;;18.61;46.69;99413.31;5010182;28;20026;-52
2022/04/07 05:58:38;;;;;;;2.55;0.90;;;;;;;18.60;46.56;99418.78;5006863;28;20092;-47
2022/04/07 06:01:03;;;;;;;1.25;0.50;;;;;;;18.60;46.64;99421.41;5010362;28;20029;-50
2022/04/07 06:03:31;;;;;;;1.15;0.70;;;;;;;18.58;46.66;99419.81;5009353;28;20484;-47
2022/04/07 06:06:00;;;;;;;1.27;0.60;;;;;;;18.59;46.56;99415.34;5033306;28;20021;-48
2022/04/07 06:08:25;;;;;;;1.58;0.60;;;;;;;18.57;46.80;99425.31;5007717;28;20033;-48
2022/04/07 06:10:51;;;;;;;3.22;0.60;;;;;;;18.56;46.92;99413.13;5007854;28;20473;-47
2022/04/07 06:13:16;;;;;;;1.00;0.50;;;;;;;18.57;47.12;99415.56;5007957;28;20765;-47
2022/04/07 06:15:42;;;;;;;1.75;0.40;;;;;;;18.61;46.97;99412.50;5006478;28;20080;-48
2022/04/07 06:18:08;;;;;;;1.33;0.60;;;;;;;18.65;47.00;99414.47;5005682;28;20040;-48
2022/04/07 06:20:33;;;;;;;1.80;0.50;;;;;;;18.68;46.91;99411.41;5011123;28;20026;-47
2022/04/07 06:23:00;;;;;;;1.27;0.60;;;;;;;18.72;47.05;99420.47;5007798;28;20053;-51
2022/04/07 06:25:26;;;;;;;1.50;0.60;;;;;;;18.76;47.00;99426.94;5003869;28;20022;-48
2022/04/07 06:27:52;;;;;;;3.22;1.02;;;;;;;18.79;47.46;99426.47;5007294;28;20552;-45
2022/04/07 06:30:20;;;;;;;1.48;0.73;;;;;;;18.83;47.75;99422.38;5009179;28;20117;-47
2022/04/07 06:32:48;;;;;;;3.83;0.60;;;;;;;18.90;47.77;99427.56;4988142;28;20034;-47
2022/04/07 06:35:15;;;;;;;2.40;1.02;;;;;;;19.00;47.70;99429.66;4999935;28;20076;-45
2022/04/07 06:37:53;;;;;;;32.83;7.07;;;;;;;19.10;48.03;99430.72;5007853;28;20026;-49
2022/04/07 06:40:27;;;;;;;19.02;4.80;;;;;;;19.19;48.12;99436.50;5006051;28;20116;-48
2022/04/07 06:42:54;;;;;;;21.48;4.05;;;;;;;19.26;48.28;99445.13;5008709;28;20048;-48
2022/04/07 06:45:20;;;;;;;14.52;3.30;;;;;;;19.30;48.83;99442.84;5007353;28;20038;-47
2022/04/07 06:47:46;;;;;;;14.20;2.80;;;;;;;19.38;49.08;99445.13;5012389;28;20047;-49
2022/04/07 06:50:13;;;;;;;12.88;3.08;;;;;;;19.43;49.60;99448.72;5008740;28;20105;-55
2022/04/07 06:52:40;;;;;;;11.63;3.28;;;;;;;19.49;51.31;99458.38;5008250;28;20029;-48
2022/04/07 06:55:06;;;;;;;9.13;3.28;;;;;;;19.61;51.89;99458.44;5005508;28;20030;-47
2022/04/07 06:57:32;;;;;;;16.38;3.55;;;;;;;19.67;52.92;99464.66;5010418;28;20042;-48
2022/04/07 06:59:57;;;;;;;14.95;3.72;;;;;;;19.71;54.19;99468.44;5006250;28;20037;-47
2022/04/07 07:02:23;;;;;;;8.13;3.05;;;;;;;19.75;54.66;99465.13;5004019;28;20030;-47
2022/04/07 07:04:48;;;;;;;12.50;2.72;;;;;;;19.78;54.96;99467.31;5005393;28;20037;-50
2022/04/07 07:07:14;;;;;;;10.70;3.08;;;;;;;19.80;54.29;99454.69;5010059;28;20145;-47
2022/04/07 07:09:39;;;;;;;12.68;4.57;;;;;;;19.85;57.18;99460.06;5007870;28;20030;-48
2022/04/07 07:12:05;;;;;;;11.95;5.30;;;;;;;19.95;59.26;99450.75;5006021;28;20132;-53
2022/04/07 07:14:31;;;;;;;11.23;3.05;;;;;;;19.96;56.90;99447.88;5007689;28;20113;-55
2022/04/07 07:16:56;;;;;;;12.90;3.20;;;;;;;19.92;56.00;99445.91;5007722;28;20268;-55
2022/04/07 07:19:28;;;;;;;9.38;2.20;;;;;;;19.89;55.26;99442.69;5007841;28;20029;-55
2022/04/07 07:21:54;;;;;;;12.60;3.33;;;;;;;19.90;54.92;99448.78;5022266;28;20079;-52
2022/04/07 07:24:20;;;;;;;9.75;2.58;;;;;;;19.89;54.74;99445.34;5007077;28;20402;-51
2022/04/07 07:26:45;;;;;;;11.00;2.05;;;;;;;19.87;54.29;99454.53;5006807;28;20041;-56
2022/04/07 07:29:11;;;;;;;16.08;2.47;;;;;;;19.87;54.08;99459.81;5007207;28;20472;-52
2022/04/07 07:31:36;;;;;;;7.97;2.20;;;;;;;19.87;54.10;99457.97;5005741;28;20026;-52
2022/04/07 07:34:03;;;;;;;11.15;2.03;;;;;;;19.86;53.77;99460.84;5007228;28;20072;-49
2022/04/07 07:36:29;;;;;;;16.67;2.40;;;;;;;19.86;53.71;99458.22;5006242;28;20041;-51
2022/04/07 07:38:55;;;;;;;12.32;1.73;;;;;;;19.85;53.52;99472.47;5006620;28;20077;-48
2022/04/07 07:41:21;;;;;;;10.35;2.03;;;;;;;19.84;53.27;99473.53;5006490;28;20034;-52
2022/04/07 07:43:46;;;;;;;10.65;1.92;;;;;;;19.83;52.92;99469.28;5006924;28;20072;-56
2022/04/07 07:46:12;;;;;;;5.80;1.52;;;;;;;19.82;52.72;99470.31;5004416;28;20029;-53
2022/04/07 07:48:37;;;;;;;9.75;1.42;;;;;;;19.81;52.42;99471.34;5006909;28;20025;-48
2022/04/07 07:51:03;;;;;;;4.60;1.35;;;;;;;19.79;52.14;99478.69;5003875;28;20121;-50
2022/04/07 07:53:29;;;;;;;5.47;1.33;;;;;;;19.79;51.89;99473.41;5021234;28;20393;-57
2022/04/07 07:55:54;;;;;;;8.63;1.33;;;;;;;19.80;51.67;99483.75;5005534;28;20026;-45
2022/04/07 07:58:22;;;;;;;6.57;1.20;;;;;;;19.82;51.55;99483.53;5004391;28;20485;-48
2022/04/07 08:00:47;;;;;;;6.97;1.75;;;;;;;19.83;51.28;99478.00;5006207;28;20033;-51
2022/04/07 08:03:13;;;;;;;5.28;1.10;;;;;;;19.83;51.15;99480.66;5008492;28;20108;-49
2022/04/07 08:05:38;;;;;;;9.15;1.42;;;;;;;19.82;51.09;99470.31;5009066;28;20064;-46
2022/04/07 08:08:05;;;;;;;8.15;1.58;;;;;;;19.83;51.30;99474.56;5009464;28;20078;-47
2022/04/07 08:10:30;;;;;;;6.97;1.50;;;;;;;19.82;51.48;99470.31;5025299;28;20555;-48
2022/04/07 08:12:56;;;;;;;8.38;1.20;;;;;;;19.80;51.39;99472.38;5009041;28;20053;-50
2022/04/07 08:15:23;;;;;;;5.45;1.45;;;;;;;19.80;51.13;99464.44;5025246;28;20053;-46
2022/04/07 08:17:49;;;;;;;7.63;1.40;;;;;;;19.81;51.09;99468.69;5007100;28;20401;-45
2022/04/07 08:20:15;;;;;;;6.65;1.60;;;;;;;19.79;51.27;99468.13;5008513;28;20026;-50
2022/04/07 08:22:40;;;;;;;6.00;1.17;;;;;;;19.77;51.09;99472.81;5007728;28;20041;-51
2022/04/07 08:25:06;;;;;;;3.90;1.00;;;;;;;19.78;50.58;99472.59;5009280;28;20397;-50
2022/04/07 08:27:31;;;;;;;3.72;0.93;;;;;;;19.77;50.59;99470.19;5008424;28;20025;-47
2022/04/07 08:29:57;;;;;;;4.10;0.88;;;;;;;19.77;50.74;99465.69;5008494;28;20454;-49
2022/04/07 08:32:22;;;;;;;17.50;1.95;;;;;;;19.80;50.75;99464.44;5002538;28;20342;-51
2022/04/07 08:34:48;;;;;;;6.03;1.88;;;;;;;19.75;51.21;99467.75;5009164;28;20049;-47
2022/04/07 08:37:13;;;;;;;10.52;2.13;;;;;;;19.75;51.27;99477.53;5008657;28;20442;-50
2022/04/07 08:39:39;;;;;;;5.28;1.60;;;;;;;19.72;51.32;99484.06;5007114;28;20034;-45
2022/04/07 08:42:05;;;;;;;11.73;2.30;;;;;;;19.69;51.35;99473.16;5002075;28;20021;-48
2022/04/07 08:44:31;;;;;;;12.05;1.73;;;;;;;19.68;51.00;99476.81;5004630;28;20068;-46
2022/04/07 08:46:58;;;;;;;15.25;1.70;;;;;;;19.67;50.63;99477.84;5004077;28;20120;-43
2022/04/07 08:49:25;;;;;;;9.25;1.90;;;;;;;19.65;50.89;99488.66;4998107;28;20143;-47
2022/04/07 08:51:52;;;;;;;10.70;1.33;;;;;;;19.65;50.84;99482.56;5002457;28;20034;-46
2022/04/07 08:54:21;;;;;;;11.25;1.10;;;;;;;19.67;49.87;99477.84;5021239;28;20036;-44
2022/04/07 08:56:48;;;;;;;3.58;1.30;;;;;;;19.70;49.63;99482.69;5005790;28;20314;-46
2022/04/07 08:59:14;;;;;;;4.75;1.10;;;;;;;19.69;49.58;99483.72;5006969;28;20060;-53
2022/04/07 09:01:40;;;;;;;4.55;0.90;;;;;;;19.67;49.25;99470.75;5008674;28;20123;-43
2022/04/07 09:04:06;;;;;;;3.45;1.15;;;;;;;19.66;48.93;99478.88;5008031;28;20466;-45
2022/04/07 09:06:35;;;;;;;5.97;1.10;;;;;;;19.62;48.83;99483.81;5007449;28;20038;-49
2022/04/07 09:09:16;;;;;;;2.80;0.90;;;;;;;19.61;48.57;99486.69;5008046;28;20490;-52
2022/04/07 09:11:43;;;;;;;1.65;0.70;;;;;;;19.57;48.71;99470.47;5022811;28;20339;-48
2022/04/07 09:14:10;;;;;;;3.70;0.93;;;;;;;19.55;48.57;99467.25;5006408;28;21255;-43
2022/04/07 09:16:38;;;;;;;7.15;1.10;;;;;;;19.54;48.62;99466.47;5018816;28;20038;-47
2022/04/07 09:19:04;;;;;;;4.18;0.90;;;;;;;19.53;48.16;99461.41;5001916;28;20080;-44
2022/04/07 09:21:31;;;;;;;3.63;0.70;;;;;;;19.51;48.25;99466.09;5004071;28;20568;-48
2022/04/07 09:23:58;;;;;;;2.25;0.68;;;;;;;19.48;47.66;99462.03;5003247;28;20213;-51
2022/04/07 09:26:24;;;;;;;1.55;0.80;;;;;;;19.48;47.31;99462.03;5003655;28;20052;-46
2022/04/07 09:28:55;;;;;;;3.22;0.80;;;;;;;19.47;47.25;99459.63;5006733;28;20581;-47
2022/04/07 09:31:22;;;;;;;4.28;0.82;;;;;;;19.47;47.13;99460.44;5000398;28;20038;-44
2022/04/07 09:33:56;;;;;;;2.35;0.88;;;;;;;19.47;47.08;99462.28;5003882;28;20109;-51
2022/04/07 09:36:23;;;;;;;3.45;0.82;;;;;;;19.46;47.09;99466.75;5019806;28;20038;-48
2022/04/07 09:39:04;;;;;;;2.85;0.82;;;;;;;19.44;46.82;99470.66;4999869;28;20034;-53
2022/04/07 09:41:31;;;;;;;4.20;1.00;;;;;;;19.45;47.14;99469.63;5003689;28;20032;-46
2022/04/07 09:43:59;;;;;;;5.10;0.93;;;;;;;19.43;47.29;99461.91;5007464;28;20116;-46
2022/04/07 09:46:26;;;;;;;4.50;0.70;;;;;;;19.43;47.27;99455.81;5006274;28;20051;-44
2022/04/07 09:49:08;;;;;;;5.63;1.20;;;;;;;19.39;47.53;99452.84;5006570;28;20061;-42
2022/04/07 09:51:51;;;;;;;4.13;0.60;;;;;;;19.38;47.63;99459.16;4998901;28;20042;-43
2022/04/07 09:54:18;;;;;;;1.35;1.13;;;;;;;19.40;47.27;99453.63;5008467;28;20026;-47
2022/04/07 09:56:46;;;;;;;2.63;1.00;;;;;;;19.39;47.64;99450.19;5006823;28;20029;-50
2022/04/07 09:59:14;;;;;;;3.15;0.82;;;;;;;19.39;47.53;99447.56;5005735;28;20125;-43
2022/04/07 10:01:39;;;;;;;1.77;0.68;;;;;;;19.39;47.73;99441.47;5008249;28;20034;-50
2022/04/07 10:04:07;;;;;;;6.47;0.80;;;;;;;19.38;47.65;99442.50;5004828;28;20096;-46
2022/04/07 10:06:33;;;;;;;3.13;0.50;;;;;;;19.39;47.45;99436.97;5006583;28;20447;-44
2022/04/07 10:09:02;;;;;;;3.33;1.15;;;;;;;19.40;47.42;99437.78;5007864;28;20041;-43
2022/04/07 10:11:32;;;;;;;3.83;0.75;;;;;;;19.41;47.29;99434.91;5006875;28;20026;-46
2022/04/07 10:13:58;;;;;;;3.85;0.77;;;;;;;19.40;47.31;99443.88;5007807;28;20083;-47
2022/04/07 10:16:27;;;;;;;4.22;0.80;;;;;;;19.41;47.46;99434.91;5006909;28;20084;-44
2022/04/07 10:19:27;;;;;;;2.00;0.68;;;;;;;19.38;47.15;99435.38;5007916;28;20068;-48
2022/04/07 10:22:31;;;;;;;1.70;0.50;;;;;;;19.36;47.27;99428.75;5006800;28;20062;-49
2022/04/07 10:25:03;;;;;;;3.63;0.80;;;;;;;19.37;47.37;99431.16;5005772;28;20029;-49
2022/04/07 10:27:30;;;;;;;2.05;0.75;;;;;;;19.39;47.50;99426.41;5003792;28;20446;-44
2022/04/07 10:30:05;;;;;;;2.35;0.60;;;;;;;19.39;47.70;99422.97;4999328;28;20029;-48
2022/04/07 10:32:36;;;;;;;1.10;0.47;;;;;;;19.38;47.63;99419.53;5004426;28;20053;-45
2022/04/07 10:35:02;;;;;;;1.63;0.63;;;;;;;19.38;47.38;99408.97;5004728;28;20477;-49
2022/04/07 10:37:28;;;;;;;3.88;0.50;;;;;;;19.39;47.31;99409.78;5005880;28;20044;-44
2022/04/07 10:39:54;;;;;;;1.08;0.57;;;;;;;19.39;47.41;99422.97;5006228;28;20485;-45
2022/04/07 10:43:13;;;;;;;2.40;0.60;;;;;;;19.36;47.33;99421.63;5003752;28;20450;-46
2022/04/07 10:45:43;;;;;;;4.25;1.15;;;;;;;19.36;47.44;99421.63;4985152;28;20056;-48
2022/04/07 10:48:24;;;;;;;0.95;0.40;;;;;;;19.34;47.29;99418.41;5004531;28;20453;-45
2022/04/07 10:50:56;;;;;;;2.13;0.60;;;;;;;19.34;47.54;99412.31;5022519;28;20044;-48
2022/04/07 10:53:32;;;;;;;1.23;0.50;;;;;;;19.33;47.71;99406.22;5003933;28;20034;-45
2022/04/07 10:56:13;;;;;;;;;;;;;;;19.26;47.78;99404.72;4997820;28;20121;-43
2022/04/07 10:58:49;;;;;;;3.08;0.88;;;;;;;19.26;48.06;99397.59;5002660;28;20407;-48
2022/04/07 11:01:30;;;;;;;6.28;0.65;;;;;;;19.35;49.06;99404.16;4998072;28;20034;-58
2022/04/07 11:04:20;;;;;;;3.65;1.00;;;;;;;19.42;50.14;99393.47;5000713;28;20026;-50
2022/04/07 11:07:04;;;;;;;7.22;1.80;;;;;;;19.46;50.80;99390.16;5002013;28;20044;-54
2022/04/07 11:09:52;;;;;;;4.45;1.15;;;;;;;19.52;50.96;99378.69;5001568;28;20038;-49
2022/04/07 11:12:49;;;;;;;3.42;2.15;;;;;;;19.57;51.03;99377.22;5003317;28;20061;-58
2022/04/07 11:15:29;;;;;;;20.38;5.32;;;;;;;19.59;51.66;99372.50;4995921;28;20145;-57
2022/04/07 11:18:02;;;;;;;29.35;9.45;;;;;;;19.63;51.54;99373.66;5005884;28;20049;-56
2022/04/07 11:20:28;;;;;;;52.75;34.17;;;;;;;19.71;51.16;99375.97;5021443;28;20149;-55
2022/04/07 11:23:14;;;;;;;28.80;18.85;;;;;;;19.74;51.82;99359.66;5005526;28;20025;-53
2022/04/07 11:25:46;;;;;;;20.05;13.43;;;;;;;19.77;52.53;99360.00;5004312;28;20037;-53
2022/04/07 11:28:25;;;;;;;17.88;11.38;;;;;;;19.78;52.68;99366.09;5005933;28;20117;-56
2022/04/07 11:30:53;;;;;;;13.00;8.93;;;;;;;19.79;52.81;99371.13;5013610;28;20051;-51
2022/04/07 11:33:19;;;;;;;15.90;9.43;;;;;;;19.84;55.21;99381.03;5003869;28;20034;-61